Time;durP1;ratioP1;P1;durP2;ratioP2;P2;SDS_P1;SDS_P2;PMS_P1;PMS_P2;Temp;Humidity;BMP_temperature;BMP_pressure;BME280_temperature;BME280_humidity;BME280_pressure;Samples;Min_cycle;Max_cycle;Signal;HPM_P1;HPM_P2
2024/02/09 00:00:17;;;;;;;3.53;3.22;;;2.80;99.90;;;;;;5047114;28;20210;-73
2024/02/09 00:02:46;;;;;;;3.35;3.00;;;2.80;99.90;;;;;;5045079;28;20653;-73
2024/02/09 00:05:14;;;;;;;4.18;3.10;;;2.80;99.90;;;;;;5048780;28;20612;-72
2024/02/09 00:07:45;;;;;;;3.40;3.10;;;2.80;99.90;;;;;;5037501;28;20247;-73
2024/02/09 00:10:13;;;;;;;3.35;3.05;;;2.80;99.90;;;;;;5051112;28;20207;-73
2024/02/09 00:12:41;;;;;;;3.33;3.03;;;2.80;99.90;;;;;;5056240;28;20711;-74
2024/02/09 00:15:09;;;;;;;3.10;2.80;;;2.80;99.90;;;;;;5056273;28;20219;-73
2024/02/09 00:17:36;;;;;;;6.00;3.92;;;2.80;99.90;;;;;;5047422;28;20553;-73
2024/02/09 00:20:07;;;;;;;3.17;2.88;;;2.80;99.90;;;;;;5046835;28;20253;-75
2024/02/09 00:22:36;;;;;;;3.63;2.70;;;2.90;99.90;;;;;;5048062;28;20232;-74
2024/02/09 00:25:04;;;;;;;3.20;2.90;;;2.90;99.90;;;;;;5046841;28;20196;-73
2024/02/09 00:27:32;;;;;;;4.88;2.45;;;2.90;99.90;;;;;;5049318;28;20210;-73
2024/02/09 00:29:59;;;;;;;3.63;2.50;;;2.80;99.90;;;;;;5052738;28;20204;-73
2024/02/09 00:32:26;;;;;;;2.60;2.40;;;2.90;99.90;;;;;;5048962;28;20646;-74
2024/02/09 00:34:54;;;;;;;2.60;2.40;;;2.80;99.90;;;;;;5049660;28;20606;-74
2024/02/09 00:37:23;;;;;;;3.05;2.75;;;2.90;99.90;;;;;;5057377;28;20204;-72
2024/02/09 00:39:50;;;;;;;2.88;2.40;;;2.90;99.90;;;;;;5046771;28;20200;-76
2024/02/09 00:42:18;;;;;;;3.10;2.30;;;2.80;99.90;;;;;;5042046;28;20647;-74
2024/02/09 00:44:45;;;;;;;3.40;3.10;;;2.80;99.90;;;;;;5053379;28;20667;-74
2024/02/09 00:47:12;;;;;;;2.28;2.00;;;2.80;99.90;;;;;;5053688;28;20203;-76
2024/02/09 00:49:41;;;;;;;2.40;2.20;;;2.80;99.90;;;;;;5045907;28;20208;-73
2024/02/09 00:52:08;;;;;;;3.05;2.85;;;2.80;99.90;;;;;;5049430;28;20219;-73
2024/02/09 00:54:38;;;;;;;2.28;2.08;;;2.80;99.90;;;;;;5046273;28;20213;-75
2024/02/09 00:57:05;;;;;;;1.90;1.75;;;2.90;99.90;;;;;;5048872;28;20212;-75
2024/02/09 00:59:36;;;;;;;2.40;1.95;;;2.90;99.90;;;;;;5049494;28;20309;-75
2024/02/09 01:02:03;;;;;;;2.20;2.03;;;2.90;99.90;;;;;;5049138;28;20307;-72
2024/02/09 01:04:30;;;;;;;1.70;1.60;;;2.80;99.90;;;;;;5052065;28;20218;-72
2024/02/09 01:06:57;;;;;;;2.70;1.38;;;2.90;99.90;;;;;;5045330;28;20196;-75
2024/02/09 01:09:25;;;;;;;1.70;1.60;;;2.90;99.90;;;;;;5050127;28;20208;-74
2024/02/09 01:11:55;;;;;;;2.08;1.92;;;2.90;99.90;;;;;;5050307;28;20196;-75
2024/02/09 02:44:51;;;;;;;1.63;1.10;;;3.00;99.90;;;;;;5057024;28;20234;-73
2024/02/09 02:47:18;;;;;;;1.40;1.30;;;3.00;99.90;;;;;;5055196;28;20520;-72
2024/02/09 03:06:11;;;;;;;2.22;2.08;;;3.00;99.90;;;;;;5044898;28;20288;-72
2024/02/09 03:08:38;;;;;;;2.13;2.03;;;3.00;99.90;;;;;;5052307;28;20208;-73
2024/02/09 03:11:06;;;;;;;1.80;1.70;;;3.00;99.90;;;;;;5052921;28;20254;-75
2024/02/09 03:13:35;;;;;;;1.95;1.85;;;3.00;99.90;;;;;;5060932;28;20627;-75
2024/02/09 03:16:02;;;;;;;1.90;1.80;;;3.10;99.90;;;;;;5054158;28;20898;-74
2024/02/09 03:18:29;;;;;;;2.40;2.20;;;3.10;99.90;;;;;;5051663;28;20230;-75
2024/02/09 03:20:58;;;;;;;2.15;2.05;;;3.10;99.90;;;;;;5053395;28;20204;-74
2024/02/09 03:23:26;;;;;;;2.35;2.15;;;3.10;99.90;;;;;;5053897;28;20235;-74
2024/02/09 03:25:54;;;;;;;3.22;2.97;;;3.10;99.90;;;;;;5046170;28;20208;-75
2024/02/09 03:28:21;;;;;;;2.65;2.25;;;3.00;99.90;;;;;;5051347;28;20242;-74
2024/02/09 03:30:48;;;;;;;2.15;2.05;;;3.10;99.90;;;;;;5053724;28;20208;-73
2024/02/09 03:33:15;;;;;;;3.00;2.72;;;3.10;99.90;;;;;;5052613;28;20694;-73
2024/02/09 03:35:42;;;;;;;2.92;2.72;;;3.10;99.90;;;;;;5046457;28;20208;-75
2024/02/09 03:38:12;;;;;;;2.90;2.70;;;3.30;99.90;;;;;;5044581;28;20563;-74
2024/02/09 03:40:41;;;;;;;3.35;3.05;;;3.20;99.90;;;;;;5046226;28;20201;-75
2024/02/09 03:43:09;;;;;;;2.78;2.58;;;3.20;99.90;;;;;;5051121;28;20251;-73
2024/02/09 03:45:37;;;;;;;2.97;2.70;;;3.20;99.90;;;;;;5047850;28;20205;-73
2024/02/09 03:48:05;;;;;;;2.42;2.25;;;3.20;99.90;;;;;;5053191;28;20202;-76
2024/02/09 03:50:34;;;;;;;3.25;2.95;;;3.10;99.90;;;;;;5048685;28;20732;-73
2024/02/09 03:53:02;;;;;;;3.15;2.85;;;3.10;99.90;;;;;;5049550;28;20299;-73
2024/02/09 03:55:28;;;;;;;3.80;3.30;;;3.20;99.90;;;;;;5052362;28;20287;-76
2024/02/09 03:57:57;;;;;;;2.60;2.38;;;3.10;99.90;;;;;;5042506;28;20204;-73
2024/02/09 04:00:24;;;;;;;2.92;2.67;;;3.10;99.90;;;;;;5049763;28;20197;-72
2024/02/09 04:02:51;;;;;;;4.53;4.13;;;3.10;99.90;;;;;;5050607;28;20228;-74
2024/02/09 04:05:18;;;;;;;3.92;3.63;;;3.10;99.90;;;;;;5054644;28;20659;-74
2024/02/09 04:07:45;;;;;;;3.53;3.22;;;3.10;99.90;;;;;;5045883;28;20239;-75
2024/02/09 04:10:12;;;;;;;3.97;3.58;;;3.20;99.90;;;;;;5052733;28;20204;-74
2024/02/09 04:12:39;;;;;;;3.58;3.28;;;3.10;99.90;;;;;;5052180;28;20212;-74
2024/02/09 04:15:11;;;;;;;4.47;4.07;;;3.10;99.90;;;;;;5053943;28;20200;-75
2024/02/09 04:17:38;;;;;;;3.20;3.00;;;3.20;99.90;;;;;;5046122;28;20211;-74
2024/02/09 04:20:08;;;;;;;5.18;4.68;;;3.20;99.90;;;;;;5049986;28;20281;-75
2024/02/09 04:22:36;;;;;;;6.55;4.60;;;3.20;99.90;;;;;;5047122;28;20235;-75
2024/02/09 04:25:03;;;;;;;4.03;3.70;;;3.20;99.90;;;;;;5043803;28;20258;-75
2024/02/09 04:27:30;;;;;;;5.15;4.35;;;3.20;99.90;;;;;;5048931;28;20240;-74
2024/02/09 04:29:58;;;;;;;3.60;3.20;;;3.20;99.90;;;;;;5050373;28;20250;-76
2024/02/09 04:32:26;;;;;;;4.10;3.30;;;3.20;99.90;;;;;;5047014;28;20581;-74
2024/02/09 04:34:53;;;;;;;3.92;3.63;;;3.20;99.90;;;;;;5057447;28;20232;-73
2024/02/09 04:37:21;;;;;;;3.95;3.55;;;3.20;99.90;;;;;;5050699;28;20250;-75
2024/02/09 04:39:48;;;;;;;4.47;3.88;;;3.30;99.90;;;;;;5051442;28;20208;-75
2024/02/09 04:42:15;;;;;;;4.20;3.80;;;3.20;99.90;;;;;;5050719;28;20273;-75
2024/02/09 04:44:42;;;;;;;3.47;3.17;;;3.10;99.90;;;;;;5052536;28;20216;-74
2024/02/09 04:47:09;;;;;;;3.60;3.30;;;3.20;99.90;;;;;;5046577;28;20205;-74
2024/02/09 04:49:37;;;;;;;4.10;3.80;;;3.10;99.90;;;;;;5049696;28;20235;-73
2024/02/09 04:52:05;;;;;;;4.28;3.88;;;3.20;99.90;;;;;;5049014;28;20205;-73
2024/02/09 04:54:32;;;;;;;3.67;3.38;;;3.10;99.90;;;;;;5051063;28;20619;-72
2024/02/09 04:57:01;;;;;;;3.90;3.60;;;3.20;99.90;;;;;;5039515;28;20246;-75
2024/02/09 04:59:28;;;;;;;4.90;4.50;;;3.20;99.90;;;;;;5048890;28;20310;-75
2024/02/09 05:01:55;;;;;;;3.63;3.33;;;3.20;99.90;;;;;;5048051;28;20203;-73
2024/02/09 05:04:21;;;;;;;5.22;3.00;;;3.20;99.90;;;;;;5051726;28;20259;-74
2024/02/09 05:06:51;;;;;;;3.60;3.30;;;3.20;99.90;;;;;;5043908;28;20228;-74
2024/02/09 05:09:29;;;;;;;4.28;3.88;;;3.20;99.90;;;;;;5046122;28;20283;-77
2024/02/09 05:11:57;;;;;;;3.13;2.90;;;3.20;99.90;;;;;;5047386;28;20196;-74
2024/02/09 05:14:24;;;;;;;3.65;3.35;;;3.20;99.90;;;;;;5053840;28;20251;-75
2024/02/09 05:16:52;;;;;;;3.72;3.42;;;3.20;99.90;;;;;;5051878;28;20208;-74
2024/02/09 05:19:19;;;;;;;4.13;3.72;;;3.30;99.90;;;;;;5043283;28;20208;-74
2024/02/09 05:21:46;;;;;;;4.70;3.55;;;3.30;99.90;;;;;;5047058;28;20713;-72
2024/02/09 05:24:14;;;;;;;4.20;3.80;;;3.20;99.90;;;;;;5050260;28;20224;-73
2024/02/09 05:26:41;;;;;;;4.57;3.20;;;3.20;99.90;;;;;;5044889;28;20659;-75
2024/02/09 05:29:08;;;;;;;3.80;3.50;;;3.20;99.90;;;;;;5048492;28;20567;-75
2024/02/09 05:31:41;;;;;;;4.03;3.30;;;3.30;99.90;;;;;;5045420;28;20207;-75
2024/02/09 05:34:08;;;;;;;3.58;3.10;;;3.30;99.90;;;;;;5041168;28;20307;-74
2024/02/09 05:36:36;;;;;;;3.95;3.63;;;3.30;99.90;;;;;;5039956;28;20248;-73
2024/02/09 05:39:03;;;;;;;2.47;2.28;;;3.30;99.90;;;;;;5039241;28;20231;-73
2024/02/09 05:41:31;;;;;;;2.95;2.75;;;3.20;99.90;;;;;;5046071;28;20304;-72
2024/02/09 05:43:58;;;;;;;3.60;3.30;;;3.20;99.90;;;;;;5043377;28;20227;-74
2024/02/09 05:46:26;;;;;;;3.40;3.15;;;3.20;99.90;;;;;;5045320;28;20655;-74
2024/02/09 05:48:53;;;;;;;3.58;3.17;;;3.30;99.90;;;;;;5041946;28;20231;-75
2024/02/09 05:51:22;;;;;;;4.32;3.95;;;3.30;99.90;;;;;;5045087;28;20297;-72
2024/02/09 05:53:50;;;;;;;4.13;3.75;;;3.20;99.90;;;;;;5046735;28;20290;-72
2024/02/09 05:56:19;;;;;;;4.43;4.03;;;3.20;99.90;;;;;;5045182;28;20258;-74
2024/02/09 05:58:48;;;;;;;5.95;3.45;;;3.20;99.90;;;;;;5043293;28;20209;-75
2024/02/09 06:01:15;;;;;;;3.95;3.35;;;3.20;99.90;;;;;;5042114;28;20199;-74
2024/02/09 06:03:42;;;;;;;3.38;3.08;;;3.30;99.90;;;;;;5040712;28;20318;-74
2024/02/09 06:06:12;;;;;;;4.20;3.85;;;3.30;99.90;;;;;;5046129;28;20258;-75
2024/02/09 06:08:39;;;;;;;3.55;3.25;;;3.30;99.90;;;;;;5048698;28;20243;-76
2024/02/09 06:11:06;;;;;;;4.05;3.40;;;3.30;99.90;;;;;;5040459;28;20235;-73
2024/02/09 06:13:33;;;;;;;3.75;3.45;;;3.30;99.90;;;;;;5051466;28;20215;-76
2024/02/09 06:16:02;;;;;;;4.03;3.67;;;3.30;99.90;;;;;;5046635;28;20274;-73
2024/02/09 06:18:29;;;;;;;4.38;3.97;;;3.30;99.90;;;;;;5051438;28;20254;-75
2024/02/09 06:20:58;;;;;;;3.60;3.30;;;3.30;99.90;;;;;;5054090;28;20242;-76
2024/02/09 06:23:26;;;;;;;4.53;4.13;;;3.40;99.90;;;;;;5050302;28;20265;-75
2024/02/09 06:25:53;;;;;;;3.60;3.30;;;3.40;99.90;;;;;;5052728;28;20219;-73
2024/02/09 06:28:20;;;;;;;3.88;3.55;;;3.30;99.90;;;;;;5044364;28;20227;-73
2024/02/09 06:30:47;;;;;;;3.88;3.53;;;3.40;99.90;;;;;;5052420;28;20300;-75
2024/02/09 06:33:16;;;;;;;4.32;3.92;;;3.40;99.90;;;;;;5045215;28;20224;-72
2024/02/09 06:35:44;;;;;;;4.00;3.70;;;3.30;99.90;;;;;;5048654;28;20247;-74
2024/02/09 06:38:12;;;;;;;4.32;3.72;;;3.40;99.90;;;;;;5051909;28;20216;-74
2024/02/09 06:40:39;;;;;;;4.57;4.10;;;3.40;99.90;;;;;;5045628;28;20208;-76
2024/02/09 06:43:06;;;;;;;3.97;3.67;;;3.30;99.90;;;;;;5048641;28;20267;-75
2024/02/09 06:45:35;;;;;;;4.75;3.85;;;3.30;99.90;;;;;;5053860;28;20235;-75
2024/02/09 06:48:03;;;;;;;3.70;3.40;;;3.40;99.90;;;;;;5041986;28;20200;-76
2024/02/09 06:50:34;;;;;;;4.30;3.90;;;3.50;99.90;;;;;;5053997;28;20214;-77
2024/02/09 06:53:01;;;;;;;5.25;3.50;;;3.40;99.90;;;;;;5046964;28;20235;-74
2024/02/09 06:55:28;;;;;;;4.82;3.83;;;3.40;99.90;;;;;;5049888;28;20610;-74
2024/02/09 06:57:55;;;;;;;4.82;4.32;;;3.50;99.90;;;;;;5050385;28;20552;-76
2024/02/09 07:00:23;;;;;;;4.50;4.15;;;3.50;99.90;;;;;;5047825;28;20731;-75
2024/02/09 07:02:50;;;;;;;4.60;4.30;;;3.50;99.90;;;;;;5047838;28;20634;-77
2024/02/09 07:05:19;;;;;;;5.88;4.60;;;3.50;99.90;;;;;;5052205;28;20675;-75
2024/02/09 07:07:49;;;;;;;7.15;5.05;;;3.50;99.90;;;;;;5044283;28;20269;-76
2024/02/09 07:10:18;;;;;;;5.07;4.57;;;3.50;99.90;;;;;;5048766;28;20211;-76
2024/02/09 07:12:45;;;;;;;4.97;4.47;;;3.50;99.90;;;;;;5048559;28;20215;-76
2024/02/09 07:15:14;;;;;;;5.28;4.70;;;3.60;99.90;;;;;;5060445;28;20211;-76
2024/02/09 07:17:41;;;;;;;4.53;4.13;;;3.60;99.90;;;;;;5059852;28;20208;-75
2024/02/09 07:20:10;;;;;;;4.78;4.38;;;3.50;99.90;;;;;;5055414;28;20208;-74
2024/02/09 07:22:38;;;;;;;5.07;4.47;;;3.50;99.90;;;;;;5052215;28;20228;-77
2024/02/09 07:25:07;;;;;;;5.47;4.97;;;3.50;99.90;;;;;;5050386;28;20389;-75
2024/02/09 07:27:34;;;;;;;4.35;3.95;;;3.60;99.90;;;;;;5052244;28;20204;-75
2024/02/09 07:30:01;;;;;;;5.35;4.95;;;3.60;99.90;;;;;;5044243;28;20266;-75
2024/02/09 07:32:28;;;;;;;4.80;4.10;;;3.60;99.90;;;;;;5048992;28;20301;-73
2024/02/09 07:34:55;;;;;;;4.72;4.22;;;3.60;99.90;;;;;;5051599;28;20196;-73
2024/02/09 07:37:24;;;;;;;5.63;4.72;;;3.50;99.90;;;;;;5049354;28;20212;-72
2024/02/09 07:39:51;;;;;;;5.40;5.00;;;3.60;99.90;;;;;;5046307;28;20244;-73
2024/02/09 07:42:20;;;;;;;4.80;4.40;;;3.60;99.90;;;;;;5050808;28;20227;-76
2024/02/09 07:44:47;;;;;;;4.47;4.07;;;3.60;99.90;;;;;;5049798;28;20220;-74
2024/02/09 07:47:14;;;;;;;4.53;4.13;;;3.60;99.90;;;;;;5047482;28;20204;-76
2024/02/09 07:49:44;;;;;;;4.53;4.18;;;3.60;99.90;;;;;;5050619;28;20208;-82
2024/02/09 07:52:10;;;;;;;4.47;4.07;;;3.60;99.90;;;;;;5046885;28;20224;-74
2024/02/09 07:54:38;;;;;;;5.15;4.65;;;3.60;99.90;;;;;;5042418;28;20201;-75
2024/02/09 07:57:06;;;;;;;4.93;3.92;;;3.60;99.90;;;;;;5051144;28;20200;-76
2024/02/09 07:59:34;;;;;;;4.63;4.10;;;3.60;99.90;;;;;;5044240;28;20698;-74
2024/02/09 08:02:02;;;;;;;3.97;3.65;;;3.70;99.90;;;;;;5053074;28;20204;-74
2024/02/09 08:04:31;;;;;;;4.18;3.88;;;3.60;99.90;;;;;;5047975;28;20579;-74
2024/02/09 08:06:58;;;;;;;4.85;4.20;;;3.70;99.90;;;;;;5053155;28;20196;-77
2024/02/09 08:09:25;;;;;;;5.18;4.65;;;3.80;99.90;;;;;;5042679;28;20203;-74
2024/02/09 08:11:52;;;;;;;4.10;3.80;;;3.70;99.90;;;;;;5045298;28;20204;-76
2024/02/09 08:14:19;;;;;;;4.53;3.70;;;3.80;99.90;;;;;;5054957;28;20281;-74
2024/02/09 08:16:47;;;;;;;5.32;4.75;;;3.80;99.90;;;;;;5046077;28;20201;-76
2024/02/09 08:19:15;;;;;;;4.60;4.10;;;3.80;99.90;;;;;;5052406;28;20204;-75
2024/02/09 08:21:42;;;;;;;3.88;3.58;;;3.80;99.90;;;;;;5041380;28;20204;-78
2024/02/09 08:24:14;;;;;;;6.05;5.00;;;3.80;99.90;;;;;;5051159;28;20231;-75
2024/02/09 08:26:41;;;;;;;4.93;4.05;;;3.70;99.90;;;;;;5039525;28;20207;-76
2024/02/09 08:29:08;;;;;;;4.10;3.75;;;3.70;99.90;;;;;;5039979;28;20228;-76
2024/02/09 08:31:35;;;;;;;5.38;4.70;;;3.80;99.90;;;;;;5047510;28;20208;-77
2024/02/09 08:34:04;;;;;;;6.28;4.90;;;3.80;99.90;;;;;;5045591;28;20285;-74
2024/02/09 08:36:31;;;;;;;4.70;4.30;;;3.80;99.90;;;;;;5050560;28;20212;-75
2024/02/09 08:38:58;;;;;;;9.15;5.43;;;3.80;99.90;;;;;;5039483;28;20667;-77
2024/02/09 08:41:25;;;;;;;5.78;5.28;;;3.90;99.90;;;;;;5050373;28;20204;-74
2024/02/09 08:43:52;;;;;;;6.10;5.50;;;3.90;99.90;;;;;;5050211;28;20284;-76
2024/02/09 08:46:19;;;;;;;5.65;4.82;;;3.90;99.90;;;;;;5052472;28;20203;-76
2024/02/09 08:48:46;;;;;;;4.95;4.45;;;3.90;99.90;;;;;;5047855;28;20209;-75
2024/02/09 08:51:15;;;;;;;4.90;4.50;;;3.90;99.90;;;;;;5034678;28;20201;-75
2024/02/09 08:53:42;;;;;;;5.80;4.32;;;3.90;99.90;;;;;;5047221;28;20282;-74
2024/02/09 08:56:10;;;;;;;4.88;4.38;;;3.90;99.90;;;;;;5045629;28;20208;-76
2024/02/09 08:58:37;;;;;;;6.60;4.45;;;3.90;99.90;;;;;;5050955;28;20254;-76
2024/02/09 09:01:04;;;;;;;4.70;4.30;;;3.90;99.90;;;;;;5047108;28;20208;-77
2024/02/09 09:03:33;;;;;;;6.75;6.00;;;4.00;99.90;;;;;;5043520;28;20721;-75
2024/02/09 09:06:02;;;;;;;6.25;5.22;;;4.00;99.90;;;;;;5051676;28;20215;-77
2024/02/09 09:08:31;;;;;;;5.57;5.05;;;4.00;99.90;;;;;;5043149;28;20290;-73
2024/02/09 09:10:58;;;;;;;5.70;5.20;;;4.00;99.90;;;;;;5053458;28;20208;-75
2024/02/09 09:13:25;;;;;;;5.10;4.60;;;4.00;99.90;;;;;;5046586;28;20285;-76
2024/02/09 09:15:52;;;;;;;4.72;4.30;;;4.00;99.90;;;;;;5052911;28;20200;-76
2024/02/09 09:18:20;;;;;;;4.88;4.47;;;4.00;99.90;;;;;;5040520;28;20216;-75
2024/02/09 09:20:47;;;;;;;6.82;5.93;;;4.10;99.90;;;;;;5046791;28;20291;-79
2024/02/09 09:23:15;;;;;;;5.78;5.18;;;4.10;99.90;;;;;;5055814;28;20235;-75
2024/02/09 09:25:43;;;;;;;9.80;5.47;;;4.20;99.90;;;;;;5045344;28;20592;-76
2024/02/09 09:28:12;;;;;;;6.93;6.20;;;4.10;99.90;;;;;;5043769;28;20212;-76
2024/02/09 09:30:39;;;;;;;5.65;5.10;;;4.10;99.90;;;;;;5042265;28;20208;-75
2024/02/09 09:33:06;;;;;;;4.97;4.47;;;4.20;99.90;;;;;;5041511;28;20223;-77
2024/02/09 09:35:33;;;;;;;6.30;5.70;;;4.20;99.90;;;;;;5055922;28;20211;-76
2024/02/09 09:38:00;;;;;;;5.72;5.15;;;4.40;99.90;;;;;;5042213;28;20273;-74
2024/02/09 09:40:32;;;;;;;6.78;6.07;;;4.40;99.90;;;;;;5051722;28;20211;-76
2024/02/09 09:43:01;;;;;;;6.50;5.88;;;4.50;99.90;;;;;;5044759;28;20251;-74
2024/02/09 09:45:29;;;;;;;5.25;4.75;;;4.50;99.90;;;;;;5045875;28;20274;-76
2024/02/09 09:47:57;;;;;;;6.05;5.45;;;4.40;99.90;;;;;;5049092;28;20529;-75
2024/02/09 09:50:26;;;;;;;6.30;5.55;;;4.40;99.90;;;;;;5046639;28;20200;-76
2024/02/09 09:52:55;;;;;;;4.03;3.72;;;4.20;99.90;;;;;;5051752;28;20285;-75
2024/02/09 09:55:26;;;;;;;5.88;5.32;;;4.40;99.90;;;;;;5067582;28;20204;-75
2024/02/09 09:57:54;;;;;;;6.95;5.75;;;4.40;99.90;;;;;;5044910;28;20663;-78
2024/02/09 10:00:24;;;;;;;6.03;5.43;;;4.40;99.90;;;;;;5055951;28;20200;-73
2024/02/09 10:02:51;;;;;;;6.50;5.88;;;4.50;99.90;;;;;;5048123;28;20319;-74
2024/02/09 10:05:18;;;;;;;6.72;5.70;;;4.40;99.90;;;;;;5057129;28;20720;-76
2024/02/09 10:07:45;;;;;;;8.70;5.20;;;4.40;99.90;;;;;;5054688;28;20243;-75
2024/02/09 10:10:13;;;;;;;5.47;4.95;;;4.50;99.90;;;;;;5055234;28;20200;-75
2024/02/09 10:12:40;;;;;;;6.55;5.75;;;4.50;99.90;;;;;;5051818;28;20332;-74
2024/02/09 10:15:08;;;;;;;6.18;5.57;;;4.60;99.90;;;;;;5055333;28;20254;-76
2024/02/09 10:17:39;;;;;;;6.75;6.05;;;4.60;99.90;;;;;;5055401;28;20211;-76
2024/02/09 10:20:09;;;;;;;7.28;6.20;;;4.60;99.90;;;;;;5047214;28;20291;-76
2024/02/09 10:22:37;;;;;;;8.10;6.60;;;4.60;99.90;;;;;;5045549;28;20673;-76
2024/02/09 10:25:05;;;;;;;8.35;7.65;;;4.80;99.90;;;;;;5055262;28;20307;-75
2024/02/09 10:27:32;;;;;;;6.03;5.22;;;4.80;99.90;;;;;;5054019;28;20253;-76
2024/02/09 10:30:00;;;;;;;7.25;6.55;;;4.80;99.90;;;;;;5054310;28;20571;-76
2024/02/09 10:32:27;;;;;;;7.28;6.20;;;4.80;99.90;;;;;;5054561;28;20274;-74
2024/02/09 10:34:55;;;;;;;7.95;6.47;;;4.80;99.90;;;;;;5055089;28;20571;-77
2024/02/09 10:37:22;;;;;;;9.00;7.63;;;4.60;99.90;;;;;;5054931;28;20212;-76
2024/02/09 10:39:49;;;;;;;9.50;7.68;;;4.80;99.90;;;;;;5053807;28;20231;-74
2024/02/09 10:42:22;;;;;;;12.68;7.95;;;4.80;99.90;;;;;;5046731;28;20282;-75
2024/02/09 10:44:51;;;;;;;15.18;8.00;;;4.90;99.90;;;;;;5043025;28;20278;-74
2024/02/09 10:47:19;;;;;;;11.80;7.40;;;4.90;99.90;;;;;;5049826;28;20690;-76
2024/02/09 10:49:48;;;;;;;8.60;6.28;;;4.90;99.90;;;;;;5051589;28;20228;-77
2024/02/09 10:52:19;;;;;;;7.50;6.10;;;5.00;99.90;;;;;;5049483;28;20274;-76
2024/02/09 10:54:50;;;;;;;8.30;7.22;;;4.90;99.90;;;;;;5050024;28;20203;-75
2024/02/09 10:57:19;;;;;;;13.20;8.32;;;5.00;99.90;;;;;;5050828;28;20223;-78
2024/02/09 10:59:47;;;;;;;8.52;7.35;;;5.00;99.90;;;;;;5054722;28;20197;-75
2024/02/09 11:02:15;;;;;;;10.60;7.88;;;5.00;99.90;;;;;;5057983;28;20254;-77
2024/02/09 11:04:42;;;;;;;11.20;8.68;;;5.00;99.90;;;;;;5054048;28;20224;-75
2024/02/09 11:07:10;;;;;;;11.45;8.18;;;5.00;99.90;;;;;;5050782;28;20266;-74
2024/02/09 11:09:39;;;;;;;8.60;7.47;;;5.00;99.90;;;;;;5045489;28;20204;-74
2024/02/09 11:12:10;;;;;;;10.63;7.70;;;5.10;99.90;;;;;;5046084;28;20196;-76
2024/02/09 11:14:37;;;;;;;9.82;7.00;;;5.10;99.90;;;;;;5052346;28;20200;-76
2024/02/09 11:17:07;;;;;;;8.77;7.15;;;5.20;99.90;;;;;;5046762;28;20252;-75
2024/02/09 11:19:37;;;;;;;8.68;7.30;;;5.10;99.90;;;;;;5048843;28;20662;-74
2024/02/09 11:22:05;;;;;;;12.15;9.00;;;5.20;99.90;;;;;;5052379;28;20670;-76
2024/02/09 11:24:32;;;;;;;12.70;9.93;;;5.20;99.90;;;;;;5052891;28;20232;-72
2024/02/09 11:27:03;;;;;;;11.15;9.20;;;5.30;99.90;;;;;;5047440;28;20249;-74
2024/02/09 11:29:32;;;;;;;10.02;8.63;;;5.40;99.90;;;;;;5049909;28;20254;-74
2024/02/09 11:32:02;;;;;;;12.52;9.23;;;5.40;99.90;;;;;;5045473;28;20695;-77
2024/02/09 11:34:32;;;;;;;13.52;9.18;;;5.50;99.90;;;;;;5048190;28;20554;-75
2024/02/09 11:37:00;;;;;;;12.88;8.95;;;5.60;99.90;;;;;;5050984;28;20211;-76
2024/02/09 11:39:27;;;;;;;16.80;8.80;;;5.70;99.90;;;;;;5037441;28;20564;-76
2024/02/09 11:41:54;;;;;;;19.38;14.90;;;5.80;99.90;;;;;;5049448;28;20209;-75
2024/02/09 11:44:23;;;;;;;9.32;7.68;;;5.90;99.90;;;;;;5052872;28;20236;-75
2024/02/09 11:46:53;;;;;;;17.25;10.35;;;6.00;99.90;;;;;;5051128;28;20262;-79
2024/02/09 11:49:21;;;;;;;11.13;8.63;;;6.10;99.90;;;;;;5047680;28;20200;-74
2024/02/09 11:51:48;;;;;;;14.20;10.00;;;6.20;99.90;;;;;;5044233;28;20843;-76
2024/02/09 11:54:16;;;;;;;10.05;8.93;;;6.40;99.90;;;;;;5049871;28;20208;-77
2024/02/09 11:56:48;;;;;;;12.73;10.02;;;6.50;99.90;;;;;;5045717;28;20618;-77
2024/02/09 11:59:15;;;;;;;13.57;9.00;;;6.60;99.90;;;;;;5043867;28;20204;-76
2024/02/09 12:01:44;;;;;;;11.50;9.88;;;6.70;99.90;;;;;;5040218;28;20205;-76
2024/02/09 12:04:12;;;;;;;11.10;7.40;;;6.60;99.90;;;;;;5045973;28;20228;-75
2024/02/09 12:06:39;;;;;;;9.75;8.50;;;6.60;99.90;;;;;;5053308;28;20278;-73
2024/02/09 12:09:08;;;;;;;12.88;10.10;;;6.60;99.90;;;;;;5045794;28;20204;-75
2024/02/09 12:11:36;;;;;;;9.68;8.43;;;6.60;99.90;;;;;;5052531;28;20211;-75
2024/02/09 12:14:03;;;;;;;14.65;9.60;;;6.60;99.90;;;;;;5051704;28;20228;-77
2024/02/09 12:16:31;;;;;;;13.05;10.57;;;6.60;99.90;;;;;;5047063;28;20552;-77
2024/02/09 12:18:59;;;;;;;12.98;10.63;;;6.60;99.90;;;;;;5048779;28;20245;-76
2024/02/09 12:21:27;;;;;;;12.75;10.55;;;6.50;99.90;;;;;;5044412;28;20235;-75
2024/02/09 12:23:54;;;;;;;14.88;11.38;;;6.60;99.90;;;;;;5051427;28;20797;-74
2024/02/09 12:26:22;;;;;;;15.50;12.10;;;6.70;99.90;;;;;;5052357;28;20639;-74
2024/02/09 12:28:49;;;;;;;15.85;12.55;;;6.70;99.90;;;;;;5045090;28;20204;-76
2024/02/09 12:31:17;;;;;;;16.08;11.70;;;6.80;99.90;;;;;;5052391;28;20583;-75
2024/02/09 12:33:44;;;;;;;17.00;13.15;;;6.80;99.90;;;;;;5052294;28;20315;-77
2024/02/09 12:36:14;;;;;;;16.48;13.25;;;6.90;99.90;;;;;;5055052;28;20208;-75
2024/02/09 12:38:42;;;;;;;15.57;11.27;;;7.10;99.90;;;;;;5049290;28;20294;-75
2024/02/09 12:41:09;;;;;;;16.23;12.05;;;7.20;99.90;;;;;;5041999;28;20262;-76
2024/02/09 12:43:37;;;;;;;19.05;13.60;;;7.20;99.90;;;;;;5041596;28;20578;-75
2024/02/09 12:46:06;;;;;;;14.95;12.80;;;7.30;99.90;;;;;;5060236;28;20273;-75
2024/02/09 12:48:36;;;;;;;13.77;11.52;;;7.20;99.90;;;;;;5049173;28;20242;-75
2024/02/09 12:51:04;;;;;;;16.55;13.07;;;7.30;99.90;;;;;;5051987;28;20290;-76
2024/02/09 12:53:34;;;;;;;19.88;13.35;;;7.30;99.90;;;;;;5050224;28;20242;-77
2024/02/09 12:56:02;;;;;;;17.08;13.73;;;7.40;99.90;;;;;;5052994;28;20255;-75
2024/02/09 12:58:29;;;;;;;18.55;13.48;;;7.50;99.90;;;;;;5048529;28;20204;-76
2024/02/09 13:00:56;;;;;;;15.90;13.05;;;7.50;99.90;;;;;;5050151;28;20612;-75
2024/02/09 13:03:24;;;;;;;15.35;11.77;;;7.60;99.90;;;;;;5047527;28;20263;-76
2024/02/09 13:05:50;;;;;;;20.65;14.40;;;7.70;99.90;;;;;;5058574;28;20255;-76
2024/02/09 13:08:17;;;;;;;14.70;12.75;;;7.70;99.90;;;;;;5037751;28;20266;-74
2024/02/09 13:10:46;;;;;;;18.45;13.68;;;7.80;99.90;;;;;;5054152;28;20196;-76
2024/02/09 13:13:14;;;;;;;18.40;15.10;;;7.80;99.90;;;;;;5046975;28;20227;-73
2024/02/09 13:15:42;;;;;;;21.58;14.23;;;7.90;99.90;;;;;;5057158;28;20337;-75
2024/02/09 13:18:10;;;;;;;15.05;12.50;;;8.00;99.90;;;;;;5045190;28;20287;-75
2024/02/09 13:20:37;;;;;;;15.85;13.02;;;8.00;99.90;;;;;;5051980;28;20200;-77
2024/02/09 13:23:04;;;;;;;20.92;13.85;;;8.00;99.90;;;;;;5045151;28;20244;-76
2024/02/09 13:25:35;;;;;;;18.10;13.38;;;8.10;99.90;;;;;;5050966;28;20224;-75
2024/02/09 13:28:06;;;;;;;18.80;13.95;;;8.10;99.90;;;;;;5045853;28;20758;-76
2024/02/09 13:30:33;;;;;;;17.80;14.52;;;8.20;99.90;;;;;;5055661;28;20219;-75
2024/02/09 13:33:00;;;;;;;24.27;16.05;;;8.20;99.90;;;;;;5051289;28;20271;-74
2024/02/09 13:35:28;;;;;;;28.13;16.63;;;8.20;99.90;;;;;;5053177;28;20204;-74
2024/02/09 13:37:56;;;;;;;16.60;13.23;;;8.20;99.90;;;;;;5052168;28;20594;-75
2024/02/09 13:40:23;;;;;;;23.67;17.50;;;8.30;99.90;;;;;;5053503;28;20204;-74
2024/02/09 13:42:51;;;;;;;18.40;13.75;;;8.40;99.90;;;;;;5055285;28;20223;-74
2024/02/09 13:45:21;;;;;;;18.50;13.90;;;8.40;99.90;;;;;;5055133;28;20311;-74
2024/02/09 13:47:49;;;;;;;18.88;14.05;;;8.40;99.90;;;;;;5042503;28;20204;-76
2024/02/09 13:50:16;;;;;;;22.42;16.20;;;8.60;99.90;;;;;;5054051;28;20212;-75
2024/02/09 13:52:44;;;;;;;21.50;17.00;;;8.70;99.90;;;;;;5053639;28;20227;-75
2024/02/09 13:55:13;;;;;;;18.52;16.25;;;8.70;99.90;;;;;;5060841;28;20335;-76
2024/02/09 13:57:44;;;;;;;23.52;15.80;;;8.90;99.90;;;;;;5046428;28;20651;-75
2024/02/09 14:00:13;;;;;;;24.85;16.45;;;8.90;99.90;;;;;;5052999;28;20294;-77
2024/02/09 14:02:41;;;;;;;20.23;15.65;;;8.90;99.90;;;;;;5055380;28;20215;-74
2024/02/09 14:05:09;;;;;;;16.55;12.30;;;9.00;99.90;;;;;;5064530;28;20232;-74
2024/02/09 14:07:38;;;;;;;20.92;16.30;;;9.10;99.90;;;;;;5049111;28;20283;-76
2024/02/09 14:10:07;;;;;;;27.20;16.60;;;9.20;99.90;;;;;;5044720;28;20214;-76
2024/02/09 14:12:34;;;;;;;19.55;14.55;;;9.30;99.90;;;;;;5053648;28;20230;-75
2024/02/09 14:15:01;;;;;;;21.45;17.63;;;9.30;99.90;;;;;;5056305;28;20238;-76
2024/02/09 14:17:28;;;;;;;23.30;16.42;;;9.30;99.90;;;;;;5057318;28;20200;-76
2024/02/09 14:19:57;;;;;;;24.13;16.33;;;9.40;99.90;;;;;;5052140;28;20201;-73
2024/02/09 14:22:24;;;;;;;20.27;15.75;;;9.40;99.90;;;;;;5046601;28;20285;-76
2024/02/09 14:24:51;;;;;;;26.20;15.95;;;9.50;99.90;;;;;;5052881;28;20315;-74
2024/02/09 14:27:18;;;;;;;21.00;16.08;;;9.60;99.90;;;;;;5044435;28;20223;-74
2024/02/09 14:29:46;;;;;;;24.85;18.02;;;9.70;99.90;;;;;;5052257;28;20251;-75
2024/02/09 14:32:13;;;;;;;19.38;16.35;;;9.70;99.90;;;;;;5050408;28;20306;-76
2024/02/09 14:34:41;;;;;;;20.15;16.80;;;9.70;99.90;;;;;;5057027;28;20210;-77
2024/02/09 14:37:10;;;;;;;25.92;18.73;;;9.70;99.90;;;;;;5052498;28;20204;-75
2024/02/09 14:39:37;;;;;;;15.77;13.45;;;9.70;99.90;;;;;;5056171;28;20234;-74
2024/02/09 14:42:04;;;;;;;25.92;16.50;;;9.70;99.90;;;;;;5044358;28;20224;-75